Time;durP1;ratioP1;P1;durP2;ratioP2;P2;SDS_P1;SDS_P2;PMS_P1;PMS_P2;Temp;Humidity;BMP_temperature;BMP_pressure;BME280_temperature;BME280_humidity;BME280_pressure;Samples;Min_cycle;Max_cycle;Signal;HPM_P1;HPM_P2
2021/04/18 00:01:31;0.00;0.00;0.62;0.00;0.00;0.62;2.00;1.60;;;24.10;21.60;;;;;;2268636;61;20360;-63
2021/04/18 00:03:59;0.00;0.00;0.62;0.00;0.00;0.62;3.00;2.30;;;24.10;21.60;;;;;;2269683;61;20500;-64
2021/04/18 00:06:27;0.00;0.00;0.62;0.00;0.00;0.62;1.70;1.50;;;24.10;21.60;;;;;;2270092;61;20357;-62
2021/04/18 00:08:54;0.00;0.00;0.62;0.00;0.00;0.62;1.80;1.40;;;24.10;21.60;;;;;;2269440;61;20589;-65
2021/04/18 00:11:20;0.00;0.00;0.62;0.00;0.00;0.62;1.93;1.53;;;24.10;21.60;;;;;;2270292;61;20358;-63
2021/04/18 00:13:47;0.00;0.00;0.62;0.00;0.00;0.62;1.93;1.70;;;24.10;21.60;;;;;;2269653;61;20374;-63
2021/04/18 00:16:14;0.00;0.00;0.62;0.00;0.00;0.62;2.30;1.90;;;24.10;21.60;;;;;;2269248;61;20358;-62
2021/04/18 00:18:41;0.00;0.00;0.62;0.00;0.00;0.62;2.60;1.87;;;24.10;21.60;;;;;;2270378;61;20399;-64
2021/04/18 00:21:08;0.00;0.00;0.62;0.00;0.00;0.62;2.43;1.70;;;24.10;21.60;;;;;;2269551;61;20580;-64
2021/04/18 00:23:35;0.00;0.00;0.62;0.00;0.00;0.62;2.27;1.70;;;24.10;21.60;;;;;;2269082;61;20381;-62
2021/04/18 00:26:02;0.00;0.00;0.62;0.00;0.00;0.62;1.80;1.43;;;24.10;21.60;;;;;;2270397;61;20391;-62
2021/04/18 00:28:30;0.00;0.00;0.62;0.00;0.00;0.62;1.90;1.60;;;24.10;21.60;;;;;;2270026;61;20360;-62
2021/04/18 00:30:56;0.00;0.00;0.62;0.00;0.00;0.62;1.97;1.40;;;24.10;21.60;;;;;;2269516;61;20365;-65
2021/04/18 00:33:23;0.00;0.00;0.62;0.00;0.00;0.62;2.70;2.00;;;24.10;21.60;;;;;;2269770;61;20595;-65
2021/04/18 00:35:50;0.00;0.00;0.62;0.00;0.00;0.62;1.93;1.50;;;24.10;21.60;;;;;;2270382;61;20389;-62
2021/04/18 00:38:17;0.00;0.00;0.62;0.00;0.00;0.62;2.47;1.93;;;24.10;21.60;;;;;;2269534;61;20350;-62
2021/04/18 00:40:44;0.00;0.00;0.62;0.00;0.00;0.62;2.20;1.60;;;24.10;21.60;;;;;;2270106;61;20354;-64
2021/04/18 00:43:12;0.00;0.00;0.62;0.00;0.00;0.62;2.53;1.77;;;24.10;21.60;;;;;;2269727;61;20740;-64
2021/04/18 00:45:39;0.00;0.00;0.62;0.00;0.00;0.62;1.90;1.30;;;24.10;21.60;;;;;;2269554;61;20357;-63
2021/04/18 00:48:06;0.00;0.00;0.62;0.00;0.00;0.62;2.10;1.67;;;24.10;21.60;;;;;;2270108;61;20357;-63
2021/04/18 00:50:36;0.00;0.00;0.62;0.00;0.00;0.62;2.23;1.40;;;24.10;21.60;;;;;;2269628;61;20357;-65
2021/04/18 00:53:06;0.00;0.00;0.62;0.00;0.00;0.62;2.00;1.47;;;24.10;21.60;;;;;;2269334;61;20432;-64
2021/04/18 00:55:36;0.00;0.00;0.62;0.00;0.00;0.62;2.50;1.70;;;24.10;21.60;;;;;;2270211;61;20345;-62
2021/04/18 00:58:05;0.00;0.00;0.62;0.00;0.00;0.62;2.43;1.87;;;24.10;21.60;;;;;;2270140;61;20362;-63
2021/04/18 01:00:33;0.00;0.00;0.62;0.00;0.00;0.62;1.80;1.43;;;24.10;21.60;;;;;;2268707;61;20735;-64
2021/04/18 01:03:00;0.00;0.00;0.62;0.00;0.00;0.62;1.87;1.47;;;24.10;21.60;;;;;;2270090;61;20378;-62
2021/04/18 01:05:28;0.00;0.00;0.62;0.00;0.00;0.62;2.03;1.60;;;24.10;21.60;;;;;;2269572;61;20362;-63
2021/04/18 01:07:55;0.00;0.00;0.62;0.00;0.00;0.62;1.90;1.57;;;24.10;21.60;;;;;;2269357;61;20385;-64
2021/04/18 01:10:22;0.00;0.00;0.62;0.00;0.00;0.62;1.80;1.37;;;24.10;21.60;;;;;;2269680;61;20353;-61
2021/04/18 01:12:51;0.00;0.00;0.62;0.00;0.00;0.62;2.00;1.63;;;24.10;21.60;;;;;;2270028;61;20412;-61
2021/04/18 01:15:18;0.00;0.00;0.62;0.00;0.00;0.62;1.50;1.20;;;24.10;21.60;;;;;;2268935;61;20411;-63
2021/04/18 01:17:47;0.00;0.00;0.62;0.00;0.00;0.62;1.67;1.27;;;24.10;21.60;;;;;;2270044;61;20368;-64
2021/04/18 01:20:18;0.00;0.00;0.62;0.00;0.00;0.62;1.70;1.40;;;24.10;21.60;;;;;;2269494;61;20701;-63
2021/04/18 01:22:47;0.00;0.00;0.62;0.00;0.00;0.62;2.00;1.30;;;24.10;21.60;;;;;;2268672;61;20386;-63
2021/04/18 01:25:41;0.00;0.00;0.62;0.00;0.00;0.62;1.80;1.40;;;24.10;21.60;;;;;;2270297;61;20704;-62
2021/04/18 01:28:15;0.00;0.00;0.62;0.00;0.00;0.62;1.80;1.20;;;24.10;21.70;;;;;;2269932;61;20357;-63
2021/04/18 01:30:42;0.00;0.00;0.62;0.00;0.00;0.62;2.07;1.60;;;24.10;21.60;;;;;;2268779;61;20361;-61
2021/04/18 01:33:09;0.00;0.00;0.62;0.00;0.00;0.62;2.43;1.60;;;24.10;21.60;;;;;;2269997;61;20413;-62
2021/04/18 01:35:39;0.00;0.00;0.62;0.00;0.00;0.62;1.70;1.50;;;24.10;21.60;;;;;;2269634;61;20362;-64
2021/04/18 01:38:10;0.00;0.00;0.62;0.00;0.00;0.62;1.73;1.30;;;24.10;21.60;;;;;;2269409;61;20365;-62
2021/04/18 01:40:37;0.00;0.00;0.62;0.00;0.00;0.62;1.73;1.30;;;24.00;21.60;;;;;;2269829;61;20412;-63
2021/04/18 01:43:04;0.00;0.00;0.62;0.00;0.00;0.62;1.67;1.30;;;24.10;21.60;;;;;;2269950;61;20483;-65
2021/04/18 01:45:31;0.00;0.00;0.62;0.00;0.00;0.62;1.70;1.20;;;24.00;21.60;;;;;;2269416;61;20425;-61
2021/04/18 01:48:00;0.00;0.00;0.62;0.00;0.00;0.62;1.97;1.23;;;24.00;21.60;;;;;;2266207;61;20377;-62
2021/04/18 01:50:27;0.00;0.00;0.62;0.00;0.00;0.62;1.53;1.13;;;24.10;21.60;;;;;;2269487;61;20960;-64
2021/04/18 01:52:54;0.00;0.00;0.62;0.00;0.00;0.62;1.60;1.27;;;24.10;21.60;;;;;;2269266;61;20400;-63
2021/04/18 01:55:21;0.00;0.00;0.62;0.00;0.00;0.62;1.80;1.20;;;24.00;21.60;;;;;;2269969;61;20371;-62
2021/04/18 01:57:50;0.00;0.00;0.62;0.00;0.00;0.62;1.47;0.90;;;24.00;21.60;;;;;;2269568;61;20357;-62
2021/04/18 02:00:29;0.00;0.00;0.62;0.00;0.00;0.62;1.70;1.30;;;24.10;21.60;;;;;;2268679;61;20515;-64
2021/04/18 02:03:00;0.00;0.00;0.62;0.00;0.00;0.62;1.50;1.20;;;24.00;21.60;;;;;;2270024;61;20623;-62
2021/04/18 02:05:37;0.00;0.00;0.62;0.00;0.00;0.62;2.10;1.27;;;24.00;21.60;;;;;;2266062;61;20379;-61
2021/04/18 02:08:10;0.00;0.00;0.62;0.00;0.00;0.62;2.27;1.23;;;24.00;21.60;;;;;;2269052;61;20390;-64
2021/04/18 02:10:38;0.00;0.00;0.62;0.00;0.00;0.62;1.93;1.40;;;24.00;21.60;;;;;;2269470;61;20358;-62
2021/04/18 02:13:05;0.00;0.00;0.62;0.00;0.00;0.62;1.80;1.10;;;24.00;21.60;;;;;;2268981;61;20381;-64
2021/04/18 02:15:50;0.00;0.00;0.62;0.00;0.00;0.62;1.80;1.40;;;24.00;21.60;;;;;;2269779;61;20393;-65
2021/04/18 02:18:17;0.00;0.00;0.62;0.00;0.00;0.62;1.83;1.10;;;24.00;21.60;;;;;;2269938;61;20349;-61
2021/04/18 02:20:44;0.00;0.00;0.62;0.00;0.00;0.62;1.60;1.17;;;24.00;21.70;;;;;;2268799;61;20748;-63
2021/04/18 02:23:11;0.00;0.00;0.62;0.00;0.00;0.62;1.77;1.10;;;24.00;21.80;;;;;;2269599;61;20724;-63
2021/04/18 02:25:39;0.00;0.00;0.62;0.00;0.00;0.62;1.83;1.40;;;24.00;21.80;;;;;;2269878;61;20357;-67
2021/04/18 02:28:06;0.00;0.00;0.62;0.00;0.00;0.62;2.27;1.43;;;24.00;21.70;;;;;;2269375;61;20679;-64
2021/04/18 02:30:36;0.00;0.00;0.62;0.00;0.00;0.62;2.43;1.80;;;24.00;21.70;;;;;;2269538;61;20354;-64
2021/04/18 02:33:04;0.00;0.00;0.62;0.00;0.00;0.62;2.93;1.60;;;24.00;21.60;;;;;;2269283;61;20392;-63
2021/04/18 02:35:31;0.00;0.00;0.62;0.00;0.00;0.62;4.33;1.60;;;24.00;21.70;;;;;;2268967;61;20362;-63
2021/04/18 02:37:59;0.00;0.00;0.62;0.00;0.00;0.62;2.80;1.50;;;24.00;21.70;;;;;;2269218;61;20357;-62
2021/04/18 02:40:25;0.00;0.00;0.62;0.00;0.00;0.62;1.80;1.60;;;24.00;21.60;;;;;;2269712;61;20385;-64
2021/04/18 02:42:54;0.00;0.00;0.62;0.00;0.00;0.62;2.77;1.83;;;23.90;21.50;;;;;;2269164;61;20841;-63
2021/04/18 02:45:21;0.00;0.00;0.62;0.00;0.00;0.62;2.50;1.77;;;24.00;21.60;;;;;;2269192;61;20380;-65
2021/04/18 02:47:49;0.00;0.00;0.62;0.00;0.00;0.62;3.30;1.90;;;23.90;21.50;;;;;;2269284;61;20371;-66
2021/04/18 02:50:17;0.00;0.00;0.62;0.00;0.00;0.62;1.70;1.40;;;23.90;22.00;;;;;;2268814;61;20611;-64
2021/04/18 02:52:45;0.00;0.00;0.62;0.00;0.00;0.62;2.33;1.57;;;23.90;21.50;;;;;;2269141;61;20369;-63
2021/04/18 02:55:13;0.00;0.00;0.62;0.00;0.00;0.62;2.17;1.90;;;23.90;21.50;;;;;;2269773;61;20350;-65
2021/04/18 02:57:55;0.00;0.00;0.62;0.00;0.00;0.62;1.90;1.70;;;23.90;21.50;;;;;;2268786;61;20354;-64
2021/04/18 03:00:23;0.00;0.00;0.62;0.00;0.00;0.62;2.03;1.77;;;23.90;21.50;;;;;;2269016;61;20365;-65
2021/04/18 03:02:50;0.00;0.00;0.62;0.00;0.00;0.62;2.93;2.10;;;23.80;21.40;;;;;;2269171;61;20388;-64
2021/04/18 03:05:17;0.00;0.00;0.62;0.00;0.00;0.62;2.40;1.53;;;23.80;21.40;;;;;;2268736;61;20358;-66
2021/04/18 03:07:51;0.00;0.00;0.62;0.00;0.00;0.62;3.00;1.97;;;23.80;21.40;;;;;;2272339;61;20671;-63
2021/04/18 03:10:18;0.00;0.00;0.62;0.00;0.00;0.62;2.73;1.90;;;23.80;21.40;;;;;;2272522;61;20353;-65
2021/04/18 03:12:45;0.00;0.00;0.62;0.00;0.00;0.62;3.50;2.10;;;23.80;21.40;;;;;;2268540;61;20384;-63
2021/04/18 03:15:15;0.00;0.00;0.62;0.00;0.00;0.62;2.97;2.00;;;23.80;21.40;;;;;;2269097;61;20354;-67
2021/04/18 03:18:26;0.00;0.00;0.62;0.00;0.00;0.62;2.70;2.07;;;23.80;21.40;;;;;;2269444;61;20799;-66
2021/04/18 03:20:54;0.00;0.00;0.62;0.00;0.00;0.62;2.37;1.90;;;23.70;21.40;;;;;;2268329;61;20400;-64
2021/04/18 03:23:25;0.00;0.00;0.62;0.00;0.00;0.62;3.20;2.50;;;23.70;21.40;;;;;;2269703;61;20378;-62
2021/04/18 03:25:55;0.00;0.00;0.62;0.00;0.00;0.62;2.90;1.93;;;23.70;21.40;;;;;;2269297;61;20354;-63
2021/04/18 03:28:22;0.00;0.00;0.62;0.00;0.00;0.62;2.33;2.03;;;23.70;21.40;;;;;;2268866;61;20354;-63
2021/04/18 03:30:53;0.00;0.00;0.62;0.00;0.00;0.62;2.00;1.67;;;23.70;21.40;;;;;;2265995;61;20350;-65
2021/04/18 03:33:24;0.00;0.00;0.62;0.00;0.00;0.62;2.33;2.00;;;23.60;21.30;;;;;;2269165;61;20387;-64
2021/04/18 03:36:01;0.00;0.00;0.62;0.00;0.00;0.62;2.90;2.40;;;23.60;21.30;;;;;;2268520;61;20364;-64
2021/04/18 03:38:32;0.00;0.00;0.62;0.00;0.00;0.62;3.10;2.23;;;23.60;21.30;;;;;;2269141;61;20350;-64
2021/04/18 03:40:59;0.00;0.00;0.62;0.00;0.00;0.62;2.77;1.80;;;23.60;21.30;;;;;;2268988;61;20358;-64
2021/04/18 03:43:26;0.00;0.00;0.62;0.00;0.00;0.62;2.33;1.63;;;23.60;21.30;;;;;;2268423;61;20381;-67
2021/04/18 03:45:56;0.00;0.00;0.62;0.00;0.00;0.62;6.03;2.47;;;23.60;21.40;;;;;;2269160;61;20362;-66
2021/04/18 03:48:26;0.00;0.00;0.62;0.00;0.00;0.62;3.67;1.97;;;23.60;21.40;;;;;;2269048;61;20358;-64
2021/04/18 03:50:53;0.00;0.00;0.62;0.00;0.00;0.62;2.10;1.77;;;23.60;21.40;;;;;;2268804;61;20361;-65
2021/04/18 03:53:21;0.00;0.00;0.62;0.00;0.00;0.62;2.13;1.93;;;23.50;21.30;;;;;;2269458;61;20370;-65
2021/04/18 03:55:55;0.00;0.00;0.62;0.00;0.00;0.62;2.30;1.87;;;23.50;21.30;;;;;;2269133;61;20354;-66
2021/04/18 03:58:27;0.00;0.00;0.62;0.00;0.00;0.62;2.60;1.97;;;23.50;21.30;;;;;;2268623;61;20393;-65
2021/04/18 04:01:02;0.00;0.00;0.62;0.00;0.00;0.62;2.47;1.90;;;23.50;21.30;;;;;;2268997;61;20404;-66
2021/04/18 04:03:33;0.00;0.00;0.62;0.00;0.00;0.62;2.70;2.13;;;23.50;21.30;;;;;;2269191;61;20381;-66
2021/04/18 04:06:00;0.00;0.00;0.62;0.00;0.00;0.62;2.20;2.00;;;23.40;21.80;;;;;;2269161;61;20346;-64
2021/04/18 04:08:30;0.00;0.00;0.62;0.00;0.00;0.62;4.40;2.40;;;23.40;21.30;;;;;;2269099;61;20353;-66
2021/04/18 04:10:57;0.00;0.00;0.62;0.00;0.00;0.62;3.47;1.73;;;23.40;21.30;;;;;;2269087;61;20354;-63
2021/04/18 04:13:24;0.00;0.00;0.62;0.00;0.00;0.62;2.30;2.10;;;23.40;21.30;;;;;;2268653;61;20732;-65
2021/04/18 04:15:58;0.00;0.00;0.62;0.00;0.00;0.62;2.60;2.03;;;23.40;21.30;;;;;;2269694;61;20678;-66
2021/04/18 04:18:26;0.00;0.00;0.62;0.00;0.00;0.62;2.23;2.03;;;23.40;21.40;;;;;;2269150;61;20365;-64
2021/04/18 04:20:59;0.00;0.00;0.62;0.00;0.00;0.62;2.77;2.47;;;23.40;21.40;;;;;;2268543;61;20557;-66
2021/04/18 04:23:44;0.00;0.00;0.62;0.00;0.00;0.62;3.03;2.40;;;23.40;21.40;;;;;;2269631;61;20416;-63
2021/04/18 04:26:11;0.00;0.00;0.62;0.00;0.00;0.62;2.57;2.00;;;23.30;21.30;;;;;;2269427;61;20356;-65
2021/04/18 04:28:37;0.00;0.00;0.62;0.00;0.00;0.62;3.40;2.30;;;23.30;21.30;;;;;;2269454;61;20354;-65
2021/04/18 04:31:04;0.00;0.00;0.62;0.00;0.00;0.62;2.33;1.90;;;23.30;21.30;;;;;;2269674;61;20357;-62
2021/04/18 04:33:34;0.00;0.00;0.62;0.00;0.00;0.62;7.00;2.80;;;23.30;21.40;;;;;;2269010;61;20388;-65
2021/04/18 04:36:00;0.00;0.00;0.62;0.00;0.00;0.62;3.50;2.10;;;23.30;21.40;;;;;;2269512;61;20357;-62
2021/04/18 04:38:27;0.00;0.00;0.62;0.00;0.00;0.62;3.17;1.80;;;23.30;21.40;;;;;;2269594;61;20698;-64
2021/04/18 04:40:54;0.00;0.00;0.62;0.00;0.00;0.62;2.43;2.10;;;23.20;21.40;;;;;;2269369;61;20615;-65
2021/04/18 04:43:21;0.00;0.00;0.62;0.00;0.00;0.62;2.37;2.17;;;23.20;21.40;;;;;;2269182;61;20512;-64
2021/04/18 04:45:48;0.00;0.00;0.62;0.00;0.00;0.62;2.60;2.00;;;23.20;21.40;;;;;;2269558;61;20357;-62
2021/04/18 04:48:14;0.00;0.00;0.62;0.00;0.00;0.62;3.27;2.30;;;23.20;21.50;;;;;;2268982;61;20422;-63
2021/04/18 04:50:42;0.00;0.00;0.62;0.00;0.00;0.62;4.30;2.77;;;23.20;21.50;;;;;;2269061;61;20743;-66
2021/04/18 04:53:08;0.00;0.00;0.62;0.00;0.00;0.62;5.20;2.90;;;23.20;22.00;;;;;;2270225;61;20373;-65
2021/04/18 04:55:35;0.00;0.00;0.62;0.00;0.00;0.62;5.80;2.17;;;23.20;21.50;;;;;;2270313;61;20395;-64
2021/04/18 04:58:02;0.00;0.00;0.62;0.00;0.00;0.62;3.43;2.47;;;23.20;21.60;;;;;;2269796;61;20346;-63
2021/04/18 05:00:29;0.00;0.00;0.62;0.00;0.00;0.62;2.90;2.10;;;23.20;21.60;;;;;;2269632;61;20506;-62
2021/04/18 05:02:56;0.00;0.00;0.62;0.00;0.00;0.62;4.10;2.27;;;23.20;21.60;;;;;;2270019;61;20373;-63
2021/04/18 05:05:22;0.00;0.00;0.62;0.00;0.00;0.62;4.10;2.70;;;23.10;21.50;;;;;;2269245;61;20362;-61
2021/04/18 05:07:50;0.00;0.00;0.62;0.00;0.00;0.62;2.90;2.23;;;23.10;21.50;;;;;;2270219;61;20354;-64
2021/04/18 05:10:16;0.00;0.00;0.62;0.00;0.00;0.62;3.93;1.97;;;23.10;21.50;;;;;;2270134;61;20361;-65
2021/04/18 05:12:43;0.00;0.00;0.62;0.00;0.00;0.62;2.60;2.40;;;23.10;21.50;;;;;;2269190;61;20369;-62
2021/04/18 05:15:12;0.00;0.00;0.62;0.00;0.00;0.62;3.00;2.03;;;23.10;21.50;;;;;;2270231;61;20350;-65
2021/04/18 05:17:38;0.00;0.00;0.62;0.00;0.00;0.62;3.00;2.40;;;23.10;21.50;;;;;;2269580;61;20381;-61
2021/04/18 05:20:06;0.00;0.00;0.62;0.00;0.00;0.62;3.60;1.90;;;23.10;21.50;;;;;;2269206;61;20551;-64
2021/04/18 05:22:33;0.00;0.00;0.62;0.00;0.00;0.62;4.23;2.47;;;23.10;21.50;;;;;;2270031;61;20378;-64
2021/04/18 05:25:02;0.00;0.00;0.62;0.00;0.00;0.62;2.80;2.20;;;23.10;21.50;;;;;;2270087;61;20354;-63
2021/04/18 05:27:29;0.00;0.00;0.62;0.00;0.00;0.62;3.10;2.20;;;23.10;21.50;;;;;;2269570;61;20364;-62
2021/04/18 05:29:55;0.00;0.00;0.62;0.00;0.00;0.62;3.60;2.23;;;23.00;21.50;;;;;;2270118;61;20350;-63
2021/04/18 05:32:22;0.00;0.00;0.62;0.00;0.00;0.62;3.40;2.10;;;23.00;21.50;;;;;;2269486;61;20591;-62
2021/04/18 05:34:49;0.00;0.00;0.62;0.00;0.00;0.62;2.43;2.23;;;23.00;21.50;;;;;;2269481;61;20487;-64
2021/04/18 05:37:16;0.00;0.00;0.62;0.00;0.00;0.62;2.70;2.30;;;23.00;21.50;;;;;;2270183;61;20406;-66
2021/04/18 05:39:42;0.00;0.00;0.62;0.00;0.00;0.62;4.30;2.50;;;23.00;21.50;;;;;;2269983;61;20364;-62
2021/04/18 05:42:10;0.00;0.00;0.62;0.00;0.00;0.62;3.20;2.43;;;23.00;21.50;;;;;;2269406;61;20589;-64
2021/04/18 05:44:37;0.00;0.00;0.62;0.00;0.00;0.62;2.63;2.27;;;23.00;21.50;;;;;;2270029;61;20733;-62
2021/04/18 05:47:04;0.00;0.00;0.62;0.00;0.00;0.62;2.80;2.27;;;23.00;21.50;;;;;;2270032;61;20383;-65
2021/04/18 05:49:30;0.00;0.00;0.62;0.00;0.00;0.62;3.07;2.43;;;23.00;21.50;;;;;;2269444;61;20736;-64
2021/04/18 05:51:57;0.00;0.00;0.62;0.00;0.00;0.62;3.00;2.20;;;23.00;21.50;;;;;;2269983;61;20704;-66
2021/04/18 05:54:24;0.00;0.00;0.62;0.00;0.00;0.62;4.83;2.80;;;23.00;21.50;;;;;;2270067;61;20392;-64
2021/04/18 05:56:50;0.00;0.00;0.62;0.00;0.00;0.62;2.87;2.20;;;23.00;21.50;;;;;;2269463;61;20688;-67
2021/04/18 05:59:18;0.00;0.00;0.62;0.00;0.00;0.62;4.30;2.50;;;23.00;21.50;;;;;;2270011;61;20353;-62
2021/04/18 06:01:44;0.00;0.00;0.62;0.00;0.00;0.62;3.20;2.47;;;23.00;21.60;;;;;;2269845;61;20411;-64
2021/04/18 06:04:11;0.00;0.00;0.62;0.00;0.00;0.62;2.37;1.83;;;23.00;21.60;;;;;;2268968;61;20382;-65
2021/04/18 06:06:38;0.00;0.00;0.62;0.00;0.00;0.62;3.50;2.83;;;23.00;21.60;;;;;;2269988;61;20439;-63
2021/04/18 06:09:05;0.00;0.00;0.62;0.00;0.00;0.62;4.40;3.13;;;23.00;21.60;;;;;;2269965;61;20353;-62
2021/04/18 06:11:32;0.00;0.00;0.62;0.00;0.00;0.62;3.23;2.93;;;22.90;21.60;;;;;;2269309;61;20440;-63
2021/04/18 06:13:59;0.00;0.00;0.62;0.00;0.00;0.62;3.53;2.47;;;22.90;21.60;;;;;;2269950;61;20365;-62
2021/04/18 06:16:26;0.00;0.00;0.62;0.00;0.00;0.62;3.40;2.17;;;22.90;21.60;;;;;;2270013;61;20363;-63
2021/04/18 06:18:53;0.00;0.00;0.62;0.00;0.00;0.62;3.40;2.77;;;22.90;21.60;;;;;;2269360;61;20380;-63
2021/04/18 06:21:19;0.00;0.00;0.62;0.00;0.00;0.62;4.33;2.70;;;22.90;21.60;;;;;;2269806;61;20364;-61
2021/04/18 06:23:46;0.00;0.00;0.62;0.00;0.00;0.62;3.80;2.47;;;22.90;21.60;;;;;;2269887;61;20385;-65
2021/04/18 06:26:13;0.00;0.00;0.62;0.00;0.00;0.62;3.90;2.43;;;22.90;21.60;;;;;;2269694;61;20358;-65
2021/04/18 06:28:41;0.00;0.00;0.62;0.00;0.00;0.62;4.63;2.70;;;22.90;21.60;;;;;;2269851;61;20364;-64
2021/04/18 06:31:08;0.00;0.00;0.62;0.00;0.00;0.62;3.00;2.70;;;22.90;21.60;;;;;;2269899;61;20678;-63
2021/04/18 06:33:35;0.00;0.00;0.62;0.00;0.00;0.62;3.23;2.70;;;22.90;21.60;;;;;;2268941;61;20453;-64
2021/04/18 06:36:02;0.00;0.00;0.62;0.00;0.00;0.62;3.00;2.70;;;22.90;21.60;;;;;;2269993;61;20373;-59
2021/04/18 06:38:28;0.00;0.00;0.62;0.00;0.00;0.62;3.33;2.70;;;22.90;21.60;;;;;;2272773;61;20357;-61
2021/04/18 06:40:55;0.00;0.00;0.62;0.00;0.00;0.62;4.20;3.10;;;22.90;21.70;;;;;;2269137;61;20444;-61
2021/04/18 06:43:23;0.00;0.00;0.62;0.00;0.00;0.62;4.90;3.20;;;22.90;21.70;;;;;;2269926;61;20412;-62
2021/04/18 06:45:52;0.00;0.00;0.62;0.00;0.00;0.62;3.47;2.90;;;22.90;21.70;;;;;;2269857;61;20614;-63
2021/04/18 06:48:19;0.00;0.00;0.62;0.00;0.00;0.62;5.33;3.07;;;23.00;21.80;;;;;;2269360;61;20349;-66
2021/04/18 06:50:47;0.00;0.00;0.62;0.00;0.00;0.62;4.17;2.80;;;22.90;21.70;;;;;;2269732;61;20402;-62
2021/04/18 06:53:14;0.00;0.00;0.62;0.00;0.00;0.62;4.57;3.67;;;23.00;21.80;;;;;;2269813;61;20380;-65
2021/04/18 06:55:42;0.00;0.00;0.62;0.00;0.00;0.62;3.30;2.97;;;23.00;21.80;;;;;;2269311;61;20353;-65
2021/04/18 06:58:08;0.00;0.00;0.62;0.00;0.00;0.62;4.87;3.10;;;22.90;21.70;;;;;;2269902;61;20350;-63
2021/04/18 07:00:35;0.00;0.00;0.62;0.00;0.00;0.62;3.37;3.03;;;23.00;21.80;;;;;;2269623;61;20361;-61
2021/04/18 07:03:13;0.00;0.00;0.62;0.00;0.00;0.62;3.97;3.40;;;23.00;21.80;;;;;;2269291;61;20385;-63
2021/04/18 07:05:44;0.00;0.00;0.62;0.00;0.00;0.62;5.03;3.03;;;23.00;21.80;;;;;;2270025;61;20386;-64
2021/04/18 07:08:24;0.00;0.00;0.62;0.00;0.00;0.62;3.70;3.03;;;22.90;21.80;;;;;;2269839;61;20630;-65
2021/04/18 07:11:08;0.00;0.00;0.62;0.00;0.00;0.62;4.97;3.23;;;23.00;21.80;;;;;;2269315;61;20364;-63
2021/04/18 07:13:35;0.00;0.00;0.62;0.00;0.00;0.62;5.40;3.57;;;23.00;21.90;;;;;;2269659;61;20702;-63
2021/04/18 07:16:02;0.00;0.00;0.62;0.00;0.00;0.62;4.60;3.30;;;23.00;21.90;;;;;;2269960;61;20364;-61
2021/04/18 07:18:39;0.00;0.00;0.62;0.00;0.00;0.62;3.90;3.40;;;23.00;21.90;;;;;;2269368;61;20406;-59
2021/04/18 07:21:07;0.00;0.00;0.62;0.00;0.00;0.62;3.23;2.90;;;23.00;21.90;;;;;;2269601;61;20377;-60
2021/04/18 07:23:34;0.00;0.00;0.62;0.00;0.00;0.62;4.17;3.27;;;23.00;21.80;;;;;;2269307;61;20389;-62
2021/04/18 07:26:23;0.00;0.00;0.62;0.00;0.00;0.62;3.30;3.00;;;23.00;21.80;;;;;;2269452;61;20465;-62
2021/04/18 07:28:51;0.00;0.00;0.62;0.00;0.00;0.62;4.20;3.10;;;23.00;21.80;;;;;;2269618;61;20357;-62
2021/04/18 07:31:32;0.00;0.00;0.62;0.00;0.00;0.62;3.30;3.00;;;23.00;21.80;;;;;;2269174;61;20461;-64
2021/04/18 07:34:02;0.00;0.00;0.62;0.00;0.00;0.62;3.97;3.50;;;23.00;21.70;;;;;;2269739;61;20423;-63
2021/04/18 07:36:30;0.00;0.00;0.62;0.00;0.00;0.62;4.17;3.50;;;23.00;21.70;;;;;;2269683;61;20552;-61
2021/04/18 07:38:57;0.00;0.00;0.62;0.00;0.00;0.62;5.10;3.13;;;23.00;21.80;;;;;;2269138;61;20647;-64
2021/04/18 07:41:25;0.00;0.00;0.62;0.00;0.00;0.62;5.73;3.00;;;23.00;21.70;;;;;;2269641;61;20471;-61
2021/04/18 07:43:51;0.00;0.00;0.62;0.00;0.00;0.62;8.23;2.80;;;23.00;21.80;;;;;;2269585;61;20390;-64
2021/04/18 07:46:20;0.00;0.00;0.62;0.00;0.00;0.62;3.43;2.70;;;23.00;21.80;;;;;;2269241;61;20689;-61
2021/04/18 07:48:48;0.00;0.00;0.62;0.00;0.00;0.62;6.00;2.93;;;23.00;21.80;;;;;;2269677;61;20358;-63
2021/04/18 07:51:16;0.00;0.00;0.62;0.00;0.00;0.62;4.53;2.43;;;23.00;21.80;;;;;;2269628;61;20363;-62
2021/04/18 07:53:44;0.00;0.00;0.62;0.00;0.00;0.62;3.60;2.40;;;23.00;21.80;;;;;;2269105;61;20706;-66
2021/04/18 07:56:14;0.00;0.00;0.62;0.00;0.00;0.62;4.97;2.73;;;23.10;21.90;;;;;;2269826;61;20406;-64
2021/04/18 07:58:43;0.00;0.00;0.62;0.00;0.00;0.62;2.50;2.07;;;23.10;21.90;;;;;;2269794;61;20819;-62
2021/04/18 08:01:10;0.00;0.00;0.62;0.00;0.00;0.62;3.90;2.67;;;23.10;21.90;;;;;;2268995;61;20361;-65
2021/04/18 08:03:41;0.00;0.00;0.62;0.00;0.00;0.62;3.93;2.70;;;23.10;21.90;;;;;;2269682;61;20472;-64
2021/04/18 08:06:08;0.00;0.00;0.62;0.00;0.00;0.62;3.80;2.40;;;23.10;21.90;;;;;;2269787;61;20355;-64
2021/04/18 08:08:50;0.00;0.00;0.62;0.00;0.00;0.62;4.23;2.90;;;23.10;21.90;;;;;;2269123;61;20611;-64
2021/04/18 08:11:19;0.00;0.00;0.62;0.00;0.00;0.62;3.80;3.23;;;23.10;21.90;;;;;;2269696;61;20387;-65
2021/04/18 08:13:49;0.00;0.00;0.62;0.00;0.00;0.62;3.23;2.70;;;23.20;21.90;;;;;;2269866;61;20377;-64
2021/04/18 08:16:26;0.00;0.00;0.62;0.00;0.00;0.62;3.90;2.50;;;23.20;21.90;;;;;;2269267;61;20346;-67
2021/04/18 08:18:53;0.00;0.00;0.62;0.00;0.00;0.62;2.60;2.40;;;23.20;21.90;;;;;;2269728;61;20363;-64
2021/04/18 08:21:30;0.00;0.00;0.62;0.00;0.00;0.62;2.37;2.17;;;23.20;21.90;;;;;;2269649;61;20394;-65
2021/04/18 08:23:58;0.00;0.00;0.62;0.00;0.00;0.62;3.20;2.17;;;23.20;21.90;;;;;;2269163;61;20393;-65
2021/04/18 08:26:27;0.00;0.00;0.62;0.00;0.00;0.62;3.40;2.67;;;23.20;21.80;;;;;;2270068;61;20558;-64
2021/04/18 08:29:09;0.00;0.00;0.62;0.00;0.00;0.62;3.37;2.40;;;23.30;21.90;;;;;;2270427;61;20440;-64
2021/04/18 08:32:07;0.00;0.00;0.62;0.00;0.00;0.62;3.40;2.60;;;23.30;21.90;;;;;;2269862;61;20380;-64
2021/04/18 08:34:38;0.00;0.00;0.62;0.00;0.00;0.62;2.83;2.43;;;23.20;21.80;;;;;;2270494;61;20396;-65
2021/04/18 08:37:13;0.00;0.00;0.62;0.00;0.00;0.62;3.27;2.93;;;23.30;21.80;;;;;;2270369;61;20384;-63
2021/04/18 08:39:41;0.00;0.00;0.62;0.00;0.00;0.62;3.30;2.70;;;23.30;21.80;;;;;;2269837;61;20357;-65
2021/04/18 08:42:22;0.00;0.00;0.62;0.00;0.00;0.62;2.60;2.33;;;23.30;21.80;;;;;;2270272;61;20354;-65
2021/04/18 08:44:50;0.00;0.00;0.62;0.00;0.00;0.62;2.60;2.40;;;23.30;21.80;;;;;;2270433;61;20596;-66
2021/04/18 08:47:21;0.00;0.00;0.62;0.00;0.00;0.62;2.80;2.50;;;23.40;21.80;;;;;;2269442;61;20728;-68
2021/04/18 08:49:50;0.00;0.00;0.62;0.00;0.00;0.62;3.20;2.60;;;23.40;21.80;;;;;;2269889;61;20736;-62
2021/04/18 08:52:23;0.00;0.00;0.62;0.00;0.00;0.62;3.30;2.83;;;23.40;21.80;;;;;;2270292;61;20614;-62
2021/04/18 08:54:52;0.00;0.00;0.62;0.00;0.00;0.62;2.77;2.30;;;23.40;21.80;;;;;;2269851;61;20357;-65
2021/04/18 08:57:21;0.00;0.00;0.62;0.00;0.00;0.62;3.30;2.63;;;23.40;21.80;;;;;;2270367;61;20396;-66
2021/04/18 08:59:52;0.00;0.00;0.62;0.00;0.00;0.62;3.30;2.90;;;23.40;21.80;;;;;;2270399;61;20584;-66
2021/04/18 09:02:20;0.00;0.00;0.62;0.00;0.00;0.62;2.87;2.33;;;23.40;21.80;;;;;;2269708;61;20411;-65
2021/04/18 09:04:48;0.00;0.00;0.62;0.00;0.00;0.62;3.60;2.90;;;23.50;21.80;;;;;;2269825;61;20384;-64
2021/04/18 09:07:17;0.00;0.00;0.62;0.00;0.00;0.62;3.40;3.10;;;23.50;21.80;;;;;;2270316;61;20400;-63
2021/04/18 09:09:44;0.00;0.00;0.62;0.00;0.00;0.62;3.27;2.40;;;23.50;21.80;;;;;;2269314;61;20604;-62
2021/04/18 09:12:14;0.00;0.00;0.62;0.00;0.00;0.62;3.10;2.80;;;23.50;21.80;;;;;;2270260;61;20350;-63
2021/04/18 09:14:44;0.00;0.00;0.62;0.00;0.00;0.62;3.70;2.80;;;23.50;21.80;;;;;;2270348;61;20690;-61
2021/04/18 09:17:14;0.00;0.00;0.62;0.00;0.00;0.62;3.37;2.87;;;23.60;21.90;;;;;;2269908;61;20346;-63
2021/04/18 09:19:45;0.00;0.00;0.62;0.00;0.00;0.62;3.63;3.17;;;23.60;21.90;;;;;;2270395;61;20365;-64
2021/04/18 09:22:15;0.00;0.00;0.62;0.00;0.00;0.62;3.33;3.03;;;23.60;21.90;;;;;;2269780;61;20346;-62
2021/04/18 09:24:47;0.00;0.00;0.62;0.00;0.00;0.62;3.93;3.40;;;23.60;21.90;;;;;;2270258;61;20391;-61
2021/04/18 09:27:17;0.00;0.00;0.62;0.00;0.00;0.62;3.20;2.70;;;23.70;21.90;;;;;;2270338;61;20395;-66
2021/04/18 09:29:49;0.00;0.00;0.62;0.00;0.00;0.62;3.70;3.07;;;23.70;21.90;;;;;;2269664;61;20358;-61
2021/04/18 09:32:19;0.00;0.00;0.62;0.00;0.00;0.62;3.80;3.40;;;23.70;21.90;;;;;;2270259;61;20353;-64
2021/04/18 09:34:47;0.00;0.00;0.62;0.00;0.00;0.62;3.40;3.10;;;23.70;21.80;;;;;;2270455;61;20376;-64
2021/04/18 09:37:18;0.00;0.00;0.62;0.00;0.00;0.62;4.27;3.27;;;23.70;21.80;;;;;;2269552;61;20350;-60
2021/04/18 09:39:51;0.00;0.00;0.62;0.00;0.00;0.62;3.60;2.90;;;23.80;21.90;;;;;;2270263;61;20354;-64
2021/04/18 09:42:19;0.00;0.00;0.62;0.00;0.00;0.62;3.47;3.10;;;23.80;21.80;;;;;;2269696;61;20678;-64
2021/04/18 09:44:49;0.00;0.00;0.62;0.00;0.00;0.62;3.70;3.10;;;23.80;21.80;;;;;;2269630;61;20413;-61
2021/04/18 09:47:24;0.00;0.00;0.62;0.00;0.00;0.62;4.30;3.90;;;23.80;21.80;;;;;;2270248;61;20690;-65
2021/04/18 09:49:54;0.00;0.00;0.62;0.00;0.00;0.62;3.80;3.30;;;23.90;21.80;;;;;;2270258;61;20353;-66